createdAt,value
2022-09-21T00:00:13.659Z,91.80
2022-09-21T00:01:13.557Z,92.50
2022-09-21T00:02:13.969Z,92.60
2022-09-21T00:03:13.030Z,92.70
2022-09-21T00:04:12.996Z,92.30
2022-09-21T00:05:14.137Z,92.10
2022-09-21T00:06:13.282Z,92.30
2022-09-21T00:07:13.561Z,92.30
2022-09-21T00:08:13.461Z,92.10
2022-09-21T00:09:13.758Z,92.00
2022-09-21T00:10:14.033Z,91.60
2022-09-21T00:11:13.295Z,91.10
2022-09-21T00:12:13.576Z,90.50
2022-09-21T00:13:13.450Z,90.00
2022-09-21T00:14:13.477Z,90.00
2022-09-21T00:15:13.681Z,89.90
2022-09-21T00:16:13.719Z,90.00
2022-09-21T00:17:13.549Z,90.40
2022-09-21T00:18:13.496Z,90.60
2022-09-21T00:19:13.611Z,90.80
2022-09-21T00:20:13.646Z,90.80
2022-09-21T00:21:13.488Z,90.20
2022-09-21T00:22:13.713Z,90.00
2022-09-21T00:23:13.687Z,89.70
2022-09-21T00:24:13.763Z,89.40
2022-09-21T00:25:13.922Z,89.60
2022-09-21T00:26:13.025Z,90.30
2022-09-21T00:27:12.923Z,91.10
2022-09-21T00:28:13.079Z,91.80
2022-09-21T00:29:12.968Z,92.20
2022-09-21T00:30:13.103Z,92.20
2022-09-21T00:31:13.096Z,92.70
2022-09-21T00:32:13.148Z,92.20
2022-09-21T00:33:13.137Z,91.80
2022-09-21T00:34:13.254Z,91.80
2022-09-21T00:35:13.643Z,92.00
2022-09-21T00:36:14.281Z,91.90
2022-09-21T00:37:13.202Z,91.60
2022-09-21T00:38:13.373Z,91.50
2022-09-21T00:39:14.021Z,91.10
2022-09-21T00:40:13.034Z,91.40
2022-09-21T00:41:13.332Z,91.70
2022-09-21T00:42:13.275Z,92.10
2022-09-21T00:43:14.524Z,92.30
2022-09-21T00:44:13.693Z,92.10
2022-09-21T00:45:13.533Z,92.20
2022-09-21T00:46:13.655Z,92.20
2022-09-21T00:47:13.899Z,92.40
2022-09-21T00:48:12.837Z,92.10
2022-09-21T00:49:14.094Z,91.90
2022-09-21T00:50:13.213Z,91.80
2022-09-21T00:51:13.370Z,91.50
2022-09-21T00:52:14.519Z,91.50
2022-09-21T00:53:13.450Z,91.60
2022-09-21T00:54:13.784Z,91.30
2022-09-21T00:55:13.885Z,91.20
2022-09-21T00:56:14.033Z,91.40
2022-09-21T00:57:13.306Z,91.20
2022-09-21T00:58:13.632Z,91.10
2022-09-21T00:59:13.579Z,91.20
2022-09-21T01:00:13.587Z,91.20
2022-09-21T01:01:13.858Z,91.40
2022-09-21T01:02:13.042Z,91.70
2022-09-21T01:03:13.319Z,91.90
2022-09-21T01:04:13.331Z,92.10
2022-09-21T01:05:13.390Z,91.90
2022-09-21T01:06:13.388Z,92.00
2022-09-21T01:07:13.366Z,91.90
2022-09-21T01:08:13.404Z,91.70
2022-09-21T01:09:13.648Z,91.50
2022-09-21T01:10:13.783Z,90.90
2022-09-21T01:11:13.787Z,90.60
2022-09-21T01:12:15.199Z,90.30
2022-09-21T01:13:13.173Z,90.20
2022-09-21T01:14:13.142Z,90.00
2022-09-21T01:15:13.058Z,90.50
2022-09-21T01:16:13.095Z,90.60
2022-09-21T01:17:13.127Z,90.40
2022-09-21T01:18:13.113Z,90.10
2022-09-21T01:19:13.037Z,89.90
2022-09-21T01:20:12.907Z,89.90
2022-09-21T01:21:12.837Z,89.80
2022-09-21T01:22:13.818Z,89.70
2022-09-21T01:23:14.072Z,89.70
2022-09-21T01:24:13.202Z,89.50
2022-09-21T01:25:13.423Z,90.00
2022-09-21T01:26:13.349Z,90.20
2022-09-21T01:27:13.496Z,90.50
2022-09-21T01:28:13.706Z,90.40
2022-09-21T01:29:13.801Z,90.50
2022-09-21T01:30:13.654Z,90.50
2022-09-21T01:31:13.745Z,90.30
2022-09-21T01:32:14.081Z,90.80
2022-09-21T01:33:13.355Z,90.70
2022-09-21T01:34:13.708Z,90.50
2022-09-21T01:35:13.680Z,90.40
2022-09-21T01:36:13.596Z,90.60
2022-09-21T01:37:14.064Z,90.60
2022-09-21T01:38:13.129Z,90.80
2022-09-21T01:39:13.213Z,91.20
2022-09-21T01:40:13.237Z,91.40
2022-09-21T01:41:13.164Z,91.50
2022-09-21T01:42:13.679Z,91.80
2022-09-21T01:43:13.643Z,92.00
2022-09-21T01:44:13.527Z,92.40
2022-09-21T01:45:13.796Z,92.50
2022-09-21T01:46:14.223Z,92.40
2022-09-21T01:47:13.428Z,92.40
2022-09-21T01:48:13.426Z,92.50
2022-09-21T01:49:13.930Z,92.20
2022-09-21T01:50:12.925Z,92.40
2022-09-21T01:51:12.953Z,92.70
2022-09-21T01:52:13.241Z,92.60
2022-09-21T01:53:13.184Z,92.40
2022-09-21T01:54:13.352Z,92.20
2022-09-21T01:55:13.320Z,92.10
2022-09-21T01:56:13.410Z,92.10
2022-09-21T01:57:13.443Z,92.20
2022-09-21T01:58:13.528Z,92.10
2022-09-21T01:59:13.420Z,92.20
2022-09-21T02:00:13.310Z,91.80
2022-09-21T02:01:13.714Z,91.80
2022-09-21T02:02:13.796Z,92.50
2022-09-21T02:03:13.920Z,92.70
2022-09-21T02:04:12.953Z,93.10
2022-09-21T02:05:12.839Z,93.00
2022-09-21T02:06:13.981Z,93.10
2022-09-21T02:07:14.385Z,93.10
2022-09-21T02:08:13.591Z,93.40
2022-09-21T02:09:13.742Z,93.10
2022-09-21T02:10:13.653Z,93.00
2022-09-21T02:11:13.823Z,93.10
2022-09-21T02:12:18.297Z,93.00
2022-09-21T02:13:13.250Z,92.80
2022-09-21T02:14:13.170Z,92.70
2022-09-21T02:15:13.556Z,91.90
2022-09-21T02:16:13.834Z,91.50
2022-09-21T02:17:13.810Z,91.70
2022-09-21T02:18:14.093Z,91.50
2022-09-21T02:19:13.053Z,91.30
2022-09-21T02:20:12.884Z,91.30
2022-09-21T02:21:13.911Z,91.20
2022-09-21T02:22:12.920Z,91.40
2022-09-21T02:23:12.849Z,91.50
2022-09-21T02:24:14.029Z,92.00
2022-09-21T02:25:12.996Z,92.50
2022-09-21T02:26:13.190Z,92.90
2022-09-21T02:27:13.149Z,92.80
2022-09-21T02:28:12.973Z,92.50
2022-09-21T02:29:12.843Z,92.00
2022-09-21T02:30:13.829Z,91.90
2022-09-21T02:31:14.024Z,91.70
2022-09-21T02:32:18.214Z,91.60
2022-09-21T02:33:13.605Z,91.90
2022-09-21T02:34:13.822Z,91.70
2022-09-21T02:35:13.736Z,91.50
2022-09-21T02:36:13.856Z,91.40
2022-09-21T02:37:13.776Z,91.40
2022-09-21T02:38:13.718Z,91.30
2022-09-21T02:39:13.734Z,91.30
2022-09-21T02:40:13.652Z,91.00
2022-09-21T02:41:13.730Z,90.90
2022-09-21T02:42:13.706Z,91.50
2022-09-21T02:43:14.100Z,92.30
2022-09-21T02:44:13.187Z,93.70
2022-09-21T02:45:13.452Z,94.20
2022-09-21T02:46:13.695Z,94.40
2022-09-21T02:47:14.022Z,94.70
2022-09-21T02:48:13.209Z,94.60
2022-09-21T02:49:13.310Z,94.50
2022-09-21T02:50:13.330Z,94.50
2022-09-21T02:51:13.487Z,94.30
2022-09-21T02:52:13.417Z,94.50
2022-09-21T02:53:13.975Z,94.30
2022-09-21T02:54:12.900Z,94.20
2022-09-21T02:55:13.115Z,94.10
2022-09-21T02:56:13.353Z,94.10
2022-09-21T02:57:13.742Z,94.20
2022-09-21T02:58:13.932Z,94.20
2022-09-21T02:59:12.996Z,94.00
2022-09-21T03:00:13.180Z,93.60
2022-09-21T03:01:13.337Z,93.70
2022-09-21T03:02:13.366Z,93.50
2022-09-21T03:03:13.879Z,93.40
2022-09-21T03:04:13.783Z,93.10
2022-09-21T03:05:14.146Z,93.20
2022-09-21T03:06:13.497Z,93.60
2022-09-21T03:07:13.497Z,94.10
2022-09-21T03:08:13.612Z,94.30
2022-09-21T03:09:13.559Z,94.60
2022-09-21T03:10:13.604Z,94.70
2022-09-21T03:11:13.421Z,95.00
2022-09-21T03:12:13.513Z,95.00
2022-09-21T03:13:13.769Z,94.70
2022-09-21T03:14:13.688Z,94.40
2022-09-21T03:15:14.171Z,94.40
2022-09-21T03:16:13.520Z,94.40
2022-09-21T03:17:13.545Z,93.70
2022-09-21T03:18:13.598Z,93.40
2022-09-21T03:19:13.639Z,93.00
2022-09-21T03:20:13.639Z,92.70
2022-09-21T03:21:13.704Z,92.30
2022-09-21T03:22:13.670Z,92.20
2022-09-21T03:23:13.679Z,92.70
2022-09-21T03:24:13.695Z,93.10
2022-09-21T03:25:13.875Z,93.00
2022-09-21T03:26:13.132Z,92.60
2022-09-21T03:27:13.075Z,92.50
2022-09-21T03:28:13.078Z,92.10
2022-09-21T03:29:12.952Z,91.80
2022-09-21T03:30:13.043Z,91.30
2022-09-21T03:31:13.058Z,91.30
2022-09-21T03:32:13.029Z,91.20
2022-09-21T03:33:12.960Z,91.10
2022-09-21T03:34:12.943Z,91.30
2022-09-21T03:35:13.131Z,92.10
2022-09-21T03:36:13.343Z,92.30
2022-09-21T03:37:13.312Z,92.50
2022-09-21T03:38:13.613Z,92.10
2022-09-21T03:39:13.731Z,91.90
2022-09-21T03:40:13.967Z,91.70
2022-09-21T03:41:13.349Z,91.70
2022-09-21T03:42:13.539Z,91.60
2022-09-21T03:43:13.418Z,92.20
2022-09-21T03:44:18.861Z,92.50
2022-09-21T03:45:13.970Z,92.40
2022-09-21T03:46:13.228Z,92.20
2022-09-21T03:47:13.220Z,92.40
2022-09-21T03:48:13.325Z,92.30
2022-09-21T03:49:13.520Z,92.10
2022-09-21T03:50:13.487Z,91.70
2022-09-21T03:51:13.602Z,91.10
2022-09-21T03:52:13.598Z,91.30
2022-09-21T03:53:14.817Z,91.60
2022-09-21T03:54:13.679Z,92.00
2022-09-21T03:55:13.577Z,92.80
2022-09-21T03:56:13.606Z,93.20
2022-09-21T03:57:13.772Z,93.90
2022-09-21T03:58:13.886Z,94.00
2022-09-21T03:59:14.444Z,93.80
2022-09-21T04:00:13.594Z,93.60
2022-09-21T04:01:13.608Z,93.90
2022-09-21T04:02:13.665Z,94.00
2022-09-21T04:03:13.898Z,93.50
2022-09-21T04:04:12.933Z,93.20
2022-09-21T04:05:12.868Z,93.00
2022-09-21T04:06:13.667Z,92.90
2022-09-21T04:07:13.703Z,92.70
2022-09-21T04:08:13.701Z,92.60
2022-09-21T04:09:13.909Z,92.30
2022-09-21T04:10:13.139Z,92.50
2022-09-21T04:11:13.127Z,92.70
2022-09-21T04:12:13.145Z,92.50
2022-09-21T04:13:13.044Z,92.50
2022-09-21T04:14:13.066Z,92.50
2022-09-21T04:15:13.102Z,92.70
2022-09-21T04:16:12.978Z,92.60
2022-09-21T04:17:13.289Z,92.40
2022-09-21T04:18:13.216Z,92.50
2022-09-21T04:19:13.126Z,92.50
2022-09-21T04:20:12.988Z,92.20
2022-09-21T04:21:13.005Z,92.00
2022-09-21T04:22:13.175Z,91.90
2022-09-21T04:23:13.071Z,91.80
2022-09-21T04:24:13.357Z,92.20
2022-09-21T04:25:13.377Z,91.70
2022-09-21T04:26:13.318Z,91.40
2022-09-21T04:27:13.459Z,91.40
2022-09-21T04:28:13.392Z,91.70
2022-09-21T04:29:13.466Z,92.10
2022-09-21T04:30:13.565Z,92.40
2022-09-21T04:31:13.581Z,92.80
2022-09-21T04:32:14.068Z,92.60
2022-09-21T04:33:13.107Z,92.30
2022-09-21T04:34:13.130Z,92.10
2022-09-21T04:35:13.266Z,92.00
2022-09-21T04:36:13.250Z,91.80
2022-09-21T04:37:13.276Z,91.40
2022-09-21T04:38:13.217Z,91.10
2022-09-21T04:39:13.104Z,91.10
2022-09-21T04:40:13.175Z,91.60
2022-09-21T04:41:13.165Z,92.90
2022-09-21T04:42:13.190Z,92.50
2022-09-21T04:43:13.221Z,92.30
2022-09-21T04:44:13.159Z,92.20
2022-09-21T04:45:13.110Z,92.00
2022-09-21T04:46:13.037Z,91.50
2022-09-21T04:47:12.933Z,91.40
2022-09-21T04:48:12.885Z,91.20
2022-09-21T04:49:12.851Z,91.70
2022-09-21T04:50:13.558Z,91.90
2022-09-21T04:51:13.818Z,92.70
2022-09-21T04:52:18.312Z,92.40
2022-09-21T04:53:13.084Z,92.30
2022-09-21T04:54:12.974Z,91.90
2022-09-21T04:55:13.003Z,91.70
2022-09-21T04:56:13.001Z,91.80
2022-09-21T04:57:13.228Z,91.70
2022-09-21T04:58:13.287Z,91.90
2022-09-21T04:59:13.296Z,91.70
2022-09-21T05:00:13.540Z,92.20
2022-09-21T05:01:13.588Z,92.50
2022-09-21T05:02:13.485Z,92.50
2022-09-21T05:03:13.680Z,92.70
2022-09-21T05:04:13.651Z,93.50
2022-09-21T05:05:13.499Z,94.20
2022-09-21T05:06:13.437Z,94.10
2022-09-21T05:07:13.491Z,93.90
2022-09-21T05:08:13.515Z,93.90
2022-09-21T05:09:14.027Z,94.20
2022-09-21T05:10:13.134Z,94.10
2022-09-21T05:11:13.376Z,94.20
2022-09-21T05:12:13.483Z,94.40
2022-09-21T05:13:17.837Z,94.40
2022-09-21T05:14:14.231Z,94.50
2022-09-21T05:15:13.135Z,94.60
2022-09-21T05:16:13.068Z,94.40
2022-09-21T05:17:12.971Z,94.00
2022-09-21T05:18:13.051Z,93.60
2022-09-21T05:19:12.952Z,93.40
2022-09-21T05:20:13.033Z,93.70
2022-09-21T05:21:13.131Z,94.00
2022-09-21T05:22:13.388Z,93.90
2022-09-21T05:23:18.498Z,93.60
2022-09-21T05:24:13.664Z,93.20
2022-09-21T05:25:13.576Z,93.40
2022-09-21T05:26:13.673Z,93.80
2022-09-21T05:27:14.061Z,94.00
2022-09-21T05:28:13.088Z,94.30
2022-09-21T05:29:13.091Z,94.00
2022-09-21T05:30:13.398Z,94.00
2022-09-21T05:31:18.127Z,94.20
2022-09-21T05:32:13.568Z,94.10
2022-09-21T05:33:13.734Z,93.70
2022-09-21T05:34:13.972Z,93.00
2022-09-21T05:35:12.968Z,92.10
2022-09-21T05:36:13.105Z,91.90
2022-09-21T05:37:50.884Z,91.90
2022-09-21T05:38:13.530Z,91.90
2022-09-21T05:39:13.450Z,92.00
2022-09-21T05:40:13.957Z,92.00
2022-09-21T05:41:13.167Z,91.50
2022-09-21T05:42:13.464Z,91.40
2022-09-21T05:43:13.453Z,91.60
2022-09-21T05:44:13.693Z,92.30
2022-09-21T05:45:13.732Z,92.60
2022-09-21T05:46:13.733Z,93.00
2022-09-21T05:47:13.896Z,93.20
2022-09-21T05:48:12.891Z,93.40
2022-09-21T05:49:13.041Z,93.30
2022-09-21T05:50:13.074Z,93.30
2022-09-21T05:51:13.181Z,93.30
2022-09-21T05:52:13.077Z,93.30
2022-09-21T05:53:13.276Z,93.20
2022-09-21T05:54:13.604Z,92.90
2022-09-21T05:55:13.544Z,92.50
2022-09-21T05:56:13.601Z,92.40
2022-09-21T05:57:13.866Z,92.40
2022-09-21T05:58:14.214Z,92.30
2022-09-21T05:59:13.144Z,92.40
2022-09-21T06:00:13.181Z,92.50
2022-09-21T06:01:13.198Z,92.80
2022-09-21T06:02:13.247Z,92.90
2022-09-21T06:03:17.452Z,92.70
2022-09-21T06:04:14.110Z,92.80
2022-09-21T06:05:13.057Z,92.90
2022-09-21T06:06:13.408Z,93.00
2022-09-21T06:07:13.639Z,92.90
2022-09-21T06:08:13.791Z,92.90
2022-09-21T06:09:13.851Z,92.70
2022-09-21T06:10:13.815Z,92.40
2022-09-21T06:11:14.061Z,92.10
2022-09-21T06:12:13.159Z,92.40
2022-09-21T06:13:13.130Z,92.60
2022-09-21T06:14:18.186Z,93.30
2022-09-21T06:15:13.415Z,93.20
2022-09-21T06:16:13.653Z,93.00
2022-09-21T06:17:13.872Z,92.90
2022-09-21T06:18:17.697Z,92.80
2022-09-21T06:19:13.283Z,92.70
2022-09-21T06:20:13.720Z,92.90
2022-09-21T06:21:13.826Z,93.10
2022-09-21T06:22:13.817Z,93.10
2022-09-21T06:23:14.100Z,93.50
2022-09-21T06:24:13.407Z,93.50
2022-09-21T06:25:13.462Z,94.00
2022-09-21T06:26:13.695Z,94.10
2022-09-21T06:27:13.655Z,94.20
2022-09-21T06:28:13.634Z,94.30
2022-09-21T06:29:13.783Z,94.60
2022-09-21T06:30:13.690Z,94.50
2022-09-21T06:31:15.158Z,94.70
2022-09-21T06:32:13.262Z,94.60
2022-09-21T06:33:13.440Z,94.50
2022-09-21T06:34:13.300Z,94.40
2022-09-21T06:35:13.348Z,94.00
2022-09-21T06:36:13.391Z,93.50
2022-09-21T06:37:13.589Z,93.10
2022-09-21T06:38:13.583Z,92.70
2022-09-21T06:39:13.511Z,92.30
2022-09-21T06:40:13.812Z,92.10
2022-09-21T06:41:18.639Z,92.10
2022-09-21T06:42:13.341Z,92.00
2022-09-21T06:43:13.546Z,92.10
2022-09-21T06:44:13.738Z,91.80
2022-09-21T06:45:14.414Z,92.00
2022-09-21T06:46:13.463Z,92.80
2022-09-21T06:47:13.440Z,93.60
2022-09-21T06:48:13.312Z,93.90
2022-09-21T06:49:13.446Z,93.80
2022-09-21T06:50:13.596Z,93.40
2022-09-21T06:51:13.559Z,93.20
2022-09-21T06:52:13.610Z,93.10
2022-09-21T06:53:13.644Z,92.70
2022-09-21T06:54:13.545Z,92.60
2022-09-21T06:55:13.560Z,92.60
2022-09-21T06:56:13.666Z,92.50
2022-09-21T06:57:13.813Z,92.30
2022-09-21T06:58:14.549Z,92.50
2022-09-21T06:59:13.889Z,92.80
2022-09-21T07:00:13.896Z,92.80
2022-09-21T07:01:13.133Z,92.60
2022-09-21T07:02:13.219Z,92.50
2022-09-21T07:03:13.337Z,92.40
2022-09-21T07:04:13.612Z,92.40
2022-09-21T07:05:13.586Z,92.70
2022-09-21T07:06:13.536Z,93.00
2022-09-21T07:07:13.744Z,93.20
2022-09-21T07:10:18.515Z,92.90
2022-09-21T07:11:13.699Z,92.70
2022-09-21T07:12:13.712Z,92.70
2022-09-21T07:13:13.577Z,92.30
2022-09-21T07:14:13.779Z,92.10
2022-09-21T07:15:13.717Z,92.20
2022-09-21T07:16:13.667Z,92.50
2022-09-21T07:17:15.660Z,92.30
2022-09-21T07:18:12.920Z,92.00
2022-09-21T07:19:13.097Z,92.20
2022-09-21T07:20:13.080Z,92.40
2022-09-21T07:21:13.089Z,91.90
2022-09-21T07:22:13.196Z,91.60
2022-09-21T07:23:13.274Z,91.60
2022-09-21T07:24:13.834Z,91.60
2022-09-21T07:25:14.024Z,91.00
2022-09-21T07:26:13.002Z,90.50
2022-09-21T07:27:12.976Z,90.40
2022-09-21T07:28:13.149Z,90.40
2022-09-21T07:29:13.094Z,90.60
2022-09-21T07:30:14.333Z,90.20
2022-09-21T07:31:13.297Z,90.40
2022-09-21T07:32:13.473Z,89.90
2022-09-21T07:33:13.702Z,90.50
2022-09-21T07:34:13.797Z,90.40
2022-09-21T07:35:13.933Z,90.30
2022-09-21T07:36:12.950Z,90.50
2022-09-21T07:37:13.064Z,89.60
2022-09-21T07:38:13.212Z,89.40
2022-09-21T07:39:13.530Z,89.30
2022-09-21T07:40:13.700Z,89.20
2022-09-21T07:41:13.956Z,89.40
2022-09-21T07:42:13.081Z,89.50
2022-09-21T07:43:13.160Z,89.10
2022-09-21T07:44:13.325Z,89.20
2022-09-21T07:45:13.554Z,89.10
2022-09-21T07:46:13.655Z,88.20
2022-09-21T07:47:13.876Z,88.80
2022-09-21T07:48:13.693Z,88.80
2022-09-21T07:49:14.126Z,88.40
2022-09-21T07:50:13.059Z,87.90
2022-09-21T07:51:12.990Z,88.50
2022-09-21T07:52:13.021Z,87.80
2022-09-21T07:53:13.310Z,88.20
2022-09-21T07:54:13.287Z,88.00
2022-09-21T07:55:13.297Z,87.10
2022-09-21T07:56:13.351Z,87.00
2022-09-21T07:57:13.237Z,86.60
2022-09-21T07:58:13.259Z,85.90
2022-09-21T07:59:13.502Z,85.80
2022-09-21T08:00:13.667Z,86.20
2022-09-21T08:01:13.709Z,85.60
2022-09-21T08:02:13.905Z,85.40
2022-09-21T08:03:13.432Z,85.10
2022-09-21T08:04:13.689Z,85.20
2022-09-21T08:05:13.609Z,85.50
2022-09-21T08:06:13.632Z,84.60
2022-09-21T08:07:13.683Z,84.80
2022-09-21T08:08:13.636Z,83.70
2022-09-21T08:09:13.777Z,83.80
2022-09-21T08:10:13.796Z,83.80
2022-09-21T08:11:14.039Z,83.30
2022-09-21T08:12:13.048Z,83.80
2022-09-21T08:13:13.080Z,82.70
2022-09-21T08:14:13.233Z,83.10
2022-09-21T08:15:30.511Z,82.90
2022-09-21T08:16:13.266Z,81.80
2022-09-21T08:17:13.477Z,81.70
2022-09-21T08:18:13.386Z,81.80
2022-09-21T08:19:13.247Z,81.40
2022-09-21T08:20:13.149Z,81.50
2022-09-21T08:21:13.169Z,80.90
2022-09-21T08:22:13.313Z,80.60
2022-09-21T08:23:13.257Z,80.60
2022-09-21T08:24:13.318Z,80.70
2022-09-21T08:25:13.425Z,80.40
2022-09-21T08:26:13.463Z,79.80
2022-09-21T08:27:13.396Z,79.60
2022-09-21T08:28:13.542Z,78.70
2022-09-21T08:29:13.606Z,78.70
2022-09-21T08:30:13.460Z,78.60
2022-09-21T08:31:13.568Z,78.10
2022-09-21T08:32:32.977Z,78.30
2022-09-21T08:33:13.769Z,77.50
2022-09-21T08:34:13.985Z,77.50
2022-09-21T08:35:12.897Z,77.10
2022-09-21T08:36:14.081Z,76.60
2022-09-21T08:37:12.992Z,76.50
2022-09-21T08:38:13.152Z,75.90
2022-09-21T08:39:13.260Z,75.90
2022-09-21T08:40:13.369Z,75.80
2022-09-21T08:41:13.556Z,75.40
2022-09-21T08:42:13.818Z,75.50
2022-09-21T08:43:14.070Z,74.20
2022-09-21T08:44:13.408Z,74.80
2022-09-21T08:45:13.630Z,74.00
2022-09-21T08:46:13.669Z,73.90
2022-09-21T08:47:13.757Z,73.90
2022-09-21T08:48:13.824Z,74.20
2022-09-21T08:49:14.009Z,72.40
2022-09-21T08:50:12.930Z,72.10
2022-09-21T08:51:12.907Z,72.10
2022-09-21T08:52:15.810Z,71.80
2022-09-21T08:53:12.995Z,71.40
2022-09-21T08:54:13.127Z,71.30
2022-09-21T08:55:16.792Z,71.80
2022-09-21T08:56:13.551Z,71.20
2022-09-21T08:57:13.686Z,70.50
2022-09-21T08:58:13.831Z,71.10
2022-09-21T08:59:14.261Z,70.90
2022-09-21T09:00:13.519Z,69.90
2022-09-21T09:01:13.730Z,70.10
2022-09-21T09:02:13.975Z,70.20
2022-09-21T09:03:12.960Z,70.20
2022-09-21T09:04:12.863Z,71.10
2022-09-21T09:05:13.765Z,70.00
2022-09-21T09:06:13.699Z,70.80
2022-09-21T09:07:13.690Z,70.40
2022-09-21T09:08:13.740Z,69.80
2022-09-21T09:09:13.979Z,68.80
2022-09-21T09:10:13.019Z,68.80
2022-09-21T09:11:12.851Z,68.00
2022-09-21T09:12:13.759Z,65.90
2022-09-21T09:13:13.728Z,64.90
2022-09-21T09:14:14.040Z,64.90
2022-09-21T09:15:13.029Z,65.30
2022-09-21T09:16:13.212Z,65.90
2022-09-21T09:17:13.157Z,65.40
2022-09-21T09:18:13.168Z,64.70
2022-09-21T09:19:13.001Z,65.60
2022-09-21T09:20:13.113Z,64.10
2022-09-21T09:21:27.641Z,66.60
2022-09-21T09:22:13.191Z,66.30
2022-09-21T09:23:13.278Z,65.80
2022-09-21T09:24:13.331Z,64.70
2022-09-21T09:25:13.232Z,64.70
2022-09-21T09:26:13.251Z,65.70
2022-09-21T09:27:13.297Z,65.50
2022-09-21T09:28:13.564Z,64.90
2022-09-21T09:29:13.769Z,65.40
2022-09-21T09:30:13.885Z,65.00
2022-09-21T09:31:14.438Z,64.70
2022-09-21T09:32:13.641Z,63.80
2022-09-21T09:33:14.125Z,62.80
2022-09-21T09:34:13.240Z,63.20
2022-09-21T09:35:13.228Z,61.20
2022-09-21T09:36:13.564Z,60.30
2022-09-21T09:37:13.541Z,62.10
2022-09-21T09:38:13.542Z,62.30
2022-09-21T09:39:13.878Z,60.30
2022-09-21T09:40:13.950Z,58.90
2022-09-21T09:41:12.844Z,58.90
2022-09-21T09:42:13.861Z,58.70
2022-09-21T09:43:13.869Z,57.70
2022-09-21T09:44:14.195Z,57.10
2022-09-21T09:45:13.077Z,56.10
2022-09-21T09:46:13.710Z,56.30
2022-09-21T09:47:13.785Z,56.40
2022-09-21T09:48:15.815Z,58.40
2022-09-21T09:49:12.928Z,57.90
2022-09-21T09:50:12.908Z,59.10
2022-09-21T09:51:12.932Z,58.50
2022-09-21T09:52:13.101Z,56.50
2022-09-21T09:53:13.478Z,56.30
2022-09-21T09:54:13.298Z,56.60
2022-09-21T09:55:13.344Z,55.90
2022-09-21T09:56:13.155Z,55.00
2022-09-21T09:57:13.121Z,54.10
2022-09-21T09:58:13.373Z,53.10
2022-09-21T09:59:13.428Z,50.40
2022-09-21T10:00:13.366Z,48.00
2022-09-21T10:01:13.738Z,47.00
2022-09-21T10:02:13.795Z,45.40
2022-09-21T10:03:13.800Z,47.50
2022-09-21T10:04:13.843Z,45.50
2022-09-21T10:05:13.044Z,44.10
2022-09-21T10:06:13.223Z,41.40
2022-09-21T10:07:13.384Z,40.70
2022-09-21T10:08:13.351Z,39.70
2022-09-21T10:09:13.628Z,39.00
2022-09-21T10:10:14.002Z,37.30
2022-09-21T10:11:13.376Z,41.90
2022-09-21T10:12:13.247Z,41.50
2022-09-21T10:13:13.495Z,41.60
2022-09-21T10:14:13.578Z,42.10
2022-09-21T10:15:13.894Z,41.80
2022-09-21T10:16:13.491Z,43.10
2022-09-21T10:17:13.731Z,42.10
2022-09-21T10:18:18.933Z,40.70
2022-09-21T10:19:13.104Z,40.30
2022-09-21T10:20:13.235Z,42.80
2022-09-21T10:21:13.316Z,43.90
2022-09-21T10:22:13.484Z,42.70
2022-09-21T10:23:18.697Z,44.80
2022-09-21T10:24:13.732Z,40.80
2022-09-21T10:25:13.843Z,37.70
2022-09-21T10:26:13.971Z,38.90
2022-09-21T10:27:12.988Z,39.40
2022-09-21T10:28:13.188Z,38.10
2022-09-21T10:29:13.472Z,40.40
2022-09-21T10:30:13.570Z,41.60
2022-09-21T10:31:13.712Z,41.20
2022-09-21T10:32:14.829Z,41.60
2022-09-21T10:33:13.319Z,40.90
2022-09-21T10:34:13.674Z,42.30
2022-09-21T10:35:13.832Z,41.30
2022-09-21T10:36:14.317Z,42.10
2022-09-21T10:37:13.408Z,39.50
2022-09-21T10:38:16.269Z,37.90
2022-09-21T10:39:14.059Z,39.50
2022-09-21T10:40:13.398Z,40.20
2022-09-21T10:41:13.598Z,37.30
2022-09-21T10:42:13.754Z,36.20
2022-09-21T10:43:13.802Z,36.10
2022-09-21T10:44:13.843Z,37.10
2022-09-21T10:45:13.829Z,36.20
2022-09-21T10:46:19.044Z,35.80
2022-09-21T10:47:17.985Z,36.70
2022-09-21T10:48:13.605Z,36.90
2022-09-21T10:49:13.685Z,37.60
2022-09-21T10:50:13.957Z,37.80
2022-09-21T10:51:12.968Z,36.50
2022-09-21T10:52:12.886Z,37.60
2022-09-21T10:53:12.811Z,36.00
2022-09-21T10:54:13.671Z,34.30
2022-09-21T10:55:13.571Z,34.30
2022-09-21T10:56:16.801Z,37.50
2022-09-21T10:57:13.743Z,35.30
2022-09-21T10:58:14.001Z,36.80
2022-09-21T10:59:12.803Z,36.10
2022-09-21T11:00:14.068Z,39.80
2022-09-21T11:01:13.188Z,42.50
2022-09-21T11:02:13.285Z,44.00
2022-09-21T11:03:13.282Z,43.80
2022-09-21T11:04:13.208Z,44.70
2022-09-21T11:05:14.074Z,43.30
2022-09-21T11:06:13.007Z,43.50
2022-09-21T11:07:13.411Z,42.40
2022-09-21T11:08:13.552Z,42.60
2022-09-21T11:09:13.715Z,43.50
2022-09-21T11:10:13.797Z,44.90
2022-09-21T11:11:13.731Z,44.10
2022-09-21T11:12:13.700Z,45.30
2022-09-21T11:13:13.653Z,44.80
2022-09-21T11:14:13.526Z,44.70
2022-09-21T11:15:13.414Z,44.50
2022-09-21T11:16:13.401Z,45.30
2022-09-21T11:17:13.673Z,45.30
2022-09-21T11:18:13.822Z,47.70
2022-09-21T11:19:13.793Z,48.40
2022-09-21T11:20:13.868Z,45.40
2022-09-21T11:21:13.795Z,41.50
2022-09-21T11:22:13.888Z,38.50
2022-09-21T11:24:14.100Z,37.40
2022-09-21T11:25:12.985Z,39.30
2022-09-21T11:26:12.958Z,38.80
2022-09-21T11:27:12.966Z,38.90
2022-09-21T11:28:13.090Z,38.90
2022-09-21T11:29:12.976Z,38.20
2022-09-21T11:30:13.125Z,37.40
2022-09-21T11:31:13.458Z,37.40
2022-09-21T11:32:13.373Z,38.40
2022-09-21T11:33:13.579Z,36.80
2022-09-21T11:34:13.399Z,36.40
2022-09-21T11:35:13.278Z,35.80
2022-09-21T11:36:13.090Z,33.60
2022-09-21T11:37:13.233Z,35.30
2022-09-21T11:38:13.149Z,34.50
2022-09-21T11:39:13.091Z,34.80
2022-09-21T11:40:13.014Z,35.00
2022-09-21T11:41:12.992Z,35.90
2022-09-21T11:42:13.297Z,36.20
2022-09-21T11:43:13.198Z,36.40
2022-09-21T11:44:17.245Z,36.50
2022-09-21T11:45:13.477Z,35.50
2022-09-21T11:46:13.510Z,38.50
2022-09-21T11:47:13.880Z,39.50
2022-09-21T11:48:13.785Z,39.10
2022-09-21T11:49:13.784Z,38.10
2022-09-21T11:50:29.660Z,39.20
2022-09-21T11:51:12.742Z,42.00
2022-09-21T11:52:13.682Z,39.10
2022-09-21T11:53:15.150Z,37.60
2022-09-21T11:54:13.184Z,36.10
2022-09-21T11:55:13.316Z,34.80
2022-09-21T11:56:13.150Z,37.60
2022-09-21T11:57:14.516Z,37.90
2022-09-21T11:58:13.504Z,39.30
2022-09-21T11:59:13.326Z,41.60
2022-09-21T12:00:13.227Z,43.20
2022-09-21T12:01:13.323Z,44.70
2022-09-21T12:02:13.578Z,44.40
2022-09-21T12:03:13.770Z,43.10
2022-09-21T12:04:19.038Z,42.40
2022-09-21T12:05:13.260Z,40.50
2022-09-21T12:06:13.311Z,39.10
2022-09-21T12:07:13.360Z,41.70
2022-09-21T12:08:13.383Z,43.60
2022-09-21T12:09:13.302Z,42.50
2022-09-21T12:10:13.185Z,42.70
2022-09-21T12:11:13.024Z,42.50
2022-09-21T12:12:13.122Z,43.50
2022-09-21T12:13:13.371Z,43.30
2022-09-21T12:14:13.493Z,43.70
2022-09-21T12:15:13.608Z,44.00
2022-09-21T12:16:15.552Z,43.60
2022-09-21T12:17:13.637Z,44.00
2022-09-21T12:18:13.840Z,43.70
2022-09-21T12:19:13.763Z,44.30
2022-09-21T12:20:13.787Z,44.00
2022-09-21T12:21:14.134Z,43.70
2022-09-21T12:22:13.048Z,41.30
2022-09-21T12:23:12.926Z,39.50
2022-09-21T12:24:13.254Z,38.20
2022-09-21T12:25:13.453Z,37.80
2022-09-21T12:26:14.033Z,38.40
2022-09-21T12:27:13.096Z,37.60
2022-09-21T12:28:18.140Z,38.10
2022-09-21T12:29:13.016Z,38.70
2022-09-21T12:30:12.885Z,39.60
2022-09-21T12:31:12.995Z,39.00
2022-09-21T12:32:12.861Z,39.60
2022-09-21T12:33:13.776Z,40.30
2022-09-21T12:34:14.160Z,40.80
2022-09-21T12:35:13.279Z,42.00
2022-09-21T12:36:13.140Z,43.50
2022-09-21T12:37:13.045Z,41.30
2022-09-21T12:38:13.043Z,40.80
2022-09-21T12:39:12.969Z,40.10
2022-09-21T12:40:13.239Z,40.40
2022-09-21T12:41:13.439Z,40.80
2022-09-21T12:42:13.597Z,40.70
2022-09-21T12:43:13.894Z,39.80
2022-09-21T12:44:12.749Z,40.70
2022-09-21T12:45:13.902Z,40.50
2022-09-21T12:46:12.794Z,40.40
2022-09-21T12:47:14.007Z,39.90
2022-09-21T12:48:12.929Z,40.10
2022-09-21T12:49:12.990Z,40.10
2022-09-21T12:50:12.834Z,40.70
2022-09-21T12:51:13.724Z,41.30
2022-09-21T12:52:13.731Z,40.20
2022-09-21T12:53:13.834Z,41.10
2022-09-21T12:54:14.641Z,40.40
2022-09-21T12:55:16.109Z,40.60